createdAt,value
2019-02-25T00:01:46.152Z,5.00
2019-02-25T00:04:51.008Z,4.80
2019-02-25T00:07:55.815Z,4.70
2019-02-25T00:11:00.671Z,5.00
2019-02-25T00:14:05.500Z,4.70
2019-02-25T00:17:10.370Z,4.80
2019-02-25T00:20:15.223Z,4.80
2019-02-25T00:23:20.059Z,4.80
2019-02-25T00:26:24.884Z,4.80
2019-02-25T00:29:29.730Z,4.80
2019-02-25T00:32:34.583Z,4.80
2019-02-25T00:35:39.439Z,4.80
2019-02-25T00:38:44.362Z,4.60
2019-02-25T00:41:49.253Z,4.70
2019-02-25T00:44:54.074Z,4.40
2019-02-25T00:47:58.896Z,4.60
2019-02-25T00:51:03.755Z,4.70
2019-02-25T00:54:08.596Z,4.50
2019-02-25T00:57:13.498Z,4.70
2019-02-25T01:00:20.010Z,4.50
2019-02-25T01:03:24.898Z,4.60
2019-02-25T01:06:29.823Z,4.50
2019-02-25T01:09:35.599Z,4.50
2019-02-25T01:12:42.259Z,4.30
2019-02-25T01:15:47.119Z,4.40
2019-02-25T01:18:51.983Z,4.40
2019-02-25T01:21:57.880Z,4.10
2019-02-25T01:25:02.886Z,4.00
2019-02-25T01:28:07.738Z,4.10
2019-02-25T01:31:12.576Z,4.10
2019-02-25T01:34:17.389Z,4.30
2019-02-25T01:37:22.328Z,4.00
2019-02-25T01:40:27.223Z,4.10
2019-02-25T01:43:32.050Z,4.30
2019-02-25T01:46:36.938Z,4.30
2019-02-25T01:49:41.794Z,4.10
2019-02-25T01:52:46.606Z,3.90
2019-02-25T01:55:51.463Z,4.20
2019-02-25T01:58:56.371Z,4.30
2019-02-25T02:02:01.250Z,3.80
2019-02-25T02:05:06.422Z,4.10
2019-02-25T02:08:12.004Z,3.80
2019-02-25T02:11:16.868Z,3.90
2019-02-25T02:14:21.718Z,3.80
2019-02-25T02:17:26.546Z,4.10
2019-02-25T02:20:31.401Z,3.80
2019-02-25T02:23:36.242Z,3.80
2019-02-25T02:26:41.094Z,4.10
2019-02-25T02:29:46.002Z,3.90
2019-02-25T02:32:50.825Z,4.10
2019-02-25T02:35:56.058Z,3.80
2019-02-25T02:39:00.976Z,3.80
2019-02-25T02:42:17.916Z,4.00
2019-02-25T02:45:34.905Z,3.70
2019-02-25T02:48:42.839Z,4.10
2019-02-25T02:51:47.735Z,3.90
2019-02-25T02:54:53.641Z,3.80
2019-02-25T02:57:58.485Z,4.00
2019-02-25T03:01:03.359Z,4.00
2019-02-25T03:04:08.239Z,4.00
2019-02-25T03:07:13.156Z,4.00
2019-02-25T03:10:19.256Z,3.80
2019-02-25T03:13:24.158Z,4.10
2019-02-25T03:16:29.139Z,3.80
2019-02-25T03:19:33.962Z,3.90
2019-02-25T03:22:38.791Z,3.80
2019-02-25T03:25:43.609Z,3.80
2019-02-25T03:28:48.483Z,3.80
2019-02-25T03:31:53.367Z,3.80
2019-02-25T03:34:58.210Z,3.90
2019-02-25T03:38:03.063Z,3.70
2019-02-25T03:41:07.895Z,3.60
2019-02-25T03:44:12.750Z,3.70
2019-02-25T03:47:17.609Z,3.90
2019-02-25T03:50:22.534Z,3.80
2019-02-25T03:53:27.434Z,3.80
2019-02-25T03:56:33.290Z,3.80
2019-02-25T03:59:38.119Z,3.60
2019-02-25T04:02:43.278Z,3.80
2019-02-25T04:05:48.302Z,3.40
2019-02-25T04:08:53.129Z,3.60
2019-02-25T04:11:57.979Z,3.50
2019-02-25T04:15:03.312Z,3.30
2019-02-25T04:18:08.156Z,3.40
2019-02-25T04:21:12.970Z,3.60
2019-02-25T04:24:17.795Z,3.40
2019-02-25T04:27:22.618Z,3.50
2019-02-25T04:30:27.488Z,3.60
2019-02-25T04:33:32.374Z,3.30
2019-02-25T04:36:37.237Z,3.60
2019-02-25T04:39:42.098Z,3.80
2019-02-25T04:42:46.910Z,3.80
2019-02-25T04:45:51.740Z,3.70
2019-02-25T04:48:56.554Z,3.50
2019-02-25T04:52:02.336Z,3.60
2019-02-25T04:55:09.185Z,3.60
2019-02-25T04:58:14.983Z,3.60
2019-02-25T05:01:19.912Z,3.80
2019-02-25T05:04:24.722Z,3.80
2019-02-25T05:07:30.555Z,3.70
2019-02-25T05:10:35.484Z,3.60
2019-02-25T05:13:40.887Z,3.70
2019-02-25T05:16:46.715Z,3.60
2019-02-25T05:19:51.579Z,3.80
2019-02-25T05:22:56.438Z,3.90
2019-02-25T05:26:01.280Z,3.60
2019-02-25T05:29:06.109Z,3.60
2019-02-25T05:32:11.059Z,3.40
2019-02-25T05:35:16.031Z,3.60
2019-02-25T05:38:20.998Z,3.40
2019-02-25T05:41:25.811Z,3.60
2019-02-25T05:44:30.643Z,3.40
2019-02-25T05:47:35.495Z,3.50
2019-02-25T05:50:41.163Z,3.50
2019-02-25T05:53:46.019Z,3.60
2019-02-25T05:56:50.861Z,3.40
2019-02-25T05:59:55.694Z,3.40
2019-02-25T06:03:00.506Z,3.80
2019-02-25T06:06:05.333Z,3.60
2019-02-25T06:09:10.175Z,3.50
2019-02-25T06:12:14.997Z,3.70
2019-02-25T06:15:20.622Z,3.60
2019-02-25T06:18:25.490Z,3.70
2019-02-25T06:21:30.368Z,4.00
2019-02-25T06:24:35.239Z,4.20
2019-02-25T06:27:40.057Z,3.80
2019-02-25T06:30:44.890Z,4.10
2019-02-25T06:33:49.699Z,4.20
2019-02-25T06:36:54.567Z,3.90
2019-02-25T06:39:59.374Z,4.10
2019-02-25T06:43:04.446Z,4.20
2019-02-25T06:46:09.273Z,4.20
2019-02-25T06:49:14.086Z,4.00
2019-02-25T06:52:20.080Z,4.30
2019-02-25T06:55:26.187Z,4.40
2019-02-25T06:58:31.013Z,4.50
2019-02-25T07:01:35.877Z,4.50
2019-02-25T07:04:49.130Z,4.80
2019-02-25T07:08:13.619Z,4.70
2019-02-25T07:11:20.110Z,4.80
2019-02-25T07:14:35.467Z,5.10
2019-02-25T07:17:56.954Z,5.30
2019-02-25T07:21:03.416Z,5.40
2019-02-25T07:24:18.882Z,5.50
2019-02-25T07:27:41.951Z,5.40
2019-02-25T07:30:54.398Z,5.60
2019-02-25T07:34:00.892Z,5.40
2019-02-25T07:37:07.390Z,5.70
2019-02-25T07:40:16.282Z,5.30
2019-02-25T07:43:25.431Z,5.30
2019-02-25T07:46:31.895Z,5.50
2019-02-25T07:49:38.401Z,5.60
2019-02-25T07:52:57.104Z,5.50
2019-02-25T07:56:06.518Z,5.80
2019-02-25T07:59:25.066Z,5.90
2019-02-25T08:02:31.559Z,6.00
2019-02-25T08:05:38.018Z,6.20
2019-02-25T08:08:44.512Z,6.10
2019-02-25T08:11:50.994Z,6.10
2019-02-25T08:14:57.534Z,5.90
2019-02-25T08:18:16.080Z,6.30
2019-02-25T08:21:25.457Z,6.60
2019-02-25T08:24:38.058Z,6.50
2019-02-25T08:28:02.962Z,6.40
2019-02-25T08:31:09.450Z,6.70
2019-02-25T08:34:18.711Z,6.60
2019-02-25T08:37:45.348Z,6.60
2019-02-25T08:41:02.062Z,7.10
2019-02-25T08:44:17.711Z,7.00
2019-02-25T08:47:24.162Z,7.00
2019-02-25T08:50:29.021Z,7.30
2019-02-25T08:53:33.882Z,7.50
2019-02-25T08:56:38.803Z,7.50
2019-02-25T08:59:43.650Z,7.60
2019-02-25T09:02:48.550Z,7.80
2019-02-25T09:05:53.369Z,7.80
2019-02-25T09:08:58.473Z,8.00
2019-02-25T09:12:03.303Z,8.40
2019-02-25T09:15:11.476Z,8.40
2019-02-25T09:18:16.315Z,8.60
2019-02-25T09:21:21.148Z,8.50
2019-02-25T09:24:25.990Z,8.60
2019-02-25T09:27:30.819Z,8.60
2019-02-25T09:30:35.666Z,9.00
2019-02-25T09:33:40.510Z,8.90
2019-02-25T09:36:45.362Z,9.10
2019-02-25T09:39:52.016Z,9.20
2019-02-25T09:42:56.945Z,9.60
2019-02-25T09:46:01.792Z,9.50
2019-02-25T09:49:06.640Z,9.80
2019-02-25T09:52:11.498Z,9.90
2019-02-25T09:55:16.313Z,10.00
2019-02-25T09:58:21.266Z,10.20
2019-02-25T10:01:26.110Z,10.20
2019-02-25T10:04:30.980Z,10.20
2019-02-25T10:07:35.919Z,10.40
2019-02-25T10:10:40.738Z,10.30
2019-02-25T10:13:45.584Z,10.50
2019-02-25T10:16:50.409Z,10.70
2019-02-25T10:19:55.270Z,10.90
2019-02-25T10:23:00.133Z,11.00
2019-02-25T10:26:05.457Z,11.10
2019-02-25T10:29:10.399Z,11.30
2019-02-25T10:32:15.217Z,11.40
2019-02-25T10:35:27.638Z,11.50
2019-02-25T10:38:32.491Z,11.70
2019-02-25T10:41:37.320Z,11.80
2019-02-25T10:44:42.249Z,12.00
2019-02-25T10:47:49.458Z,12.10
2019-02-25T10:50:56.220Z,12.00
2019-02-25T10:54:00.647Z,12.20
2019-02-25T10:57:05.935Z,12.50
2019-02-25T11:00:16.427Z,12.70
2019-02-25T11:03:21.726Z,12.90
2019-02-25T11:06:27.383Z,12.90
2019-02-25T11:09:34.906Z,13.00
2019-02-25T11:12:40.509Z,13.00
2019-02-25T11:15:46.669Z,13.20
2019-02-25T11:18:52.760Z,13.10
2019-02-25T11:21:58.615Z,13.20
2019-02-25T11:25:04.670Z,13.30
2019-02-25T11:28:22.657Z,13.50
2019-02-25T11:31:21.707Z,13.60
2019-02-25T11:34:24.514Z,13.70
2019-02-25T11:37:29.337Z,13.80
2019-02-25T11:40:36.067Z,13.80
2019-02-25T11:43:40.755Z,14.00
2019-02-25T11:46:45.629Z,14.10
2019-02-25T11:49:50.934Z,14.10
2019-02-25T11:52:56.101Z,14.10
2019-02-25T11:56:00.925Z,14.20
2019-02-25T11:59:05.758Z,14.20
2019-02-25T12:02:10.683Z,14.30
2019-02-25T12:05:17.128Z,14.50
2019-02-25T12:08:21.995Z,14.70
2019-02-25T12:11:27.630Z,14.80
2019-02-25T12:14:32.469Z,15.00
2019-02-25T12:17:37.320Z,14.90
2019-02-25T12:20:42.150Z,14.80
2019-02-25T12:23:47.006Z,14.90
2019-02-25T12:26:51.867Z,15.00
2019-02-25T12:29:56.731Z,15.00
2019-02-25T12:33:01.626Z,15.00
2019-02-25T12:36:06.489Z,14.90
2019-02-25T12:39:11.577Z,14.80
2019-02-25T12:42:16.434Z,14.90
2019-02-25T12:45:21.373Z,15.00
2019-02-25T12:48:26.242Z,15.00
2019-02-25T12:51:31.132Z,14.80
2019-02-25T12:54:35.961Z,14.70
2019-02-25T12:57:40.828Z,14.50
2019-02-25T13:00:46.183Z,14.60
2019-02-25T13:03:51.099Z,14.50
2019-02-25T13:06:55.962Z,14.40
2019-02-25T13:10:00.850Z,14.50
2019-02-25T13:13:07.374Z,14.50
2019-02-25T13:16:12.283Z,14.60
2019-02-25T13:19:17.126Z,14.60
2019-02-25T13:22:21.974Z,14.60
2019-02-25T13:25:29.806Z,14.60
2019-02-25T13:28:34.641Z,14.50
2019-02-25T13:31:39.557Z,14.50
2019-02-25T13:34:44.494Z,14.60
2019-02-25T13:37:49.393Z,14.70
2019-02-25T13:40:54.290Z,14.80
2019-02-25T13:43:59.193Z,14.90
2019-02-25T13:47:04.150Z,14.80
2019-02-25T13:50:17.097Z,14.70
2019-02-25T13:53:22.030Z,14.60
2019-02-25T13:56:27.169Z,14.70
2019-02-25T13:59:32.121Z,14.60
2019-02-25T14:02:37.018Z,14.60
2019-02-25T14:05:41.937Z,14.60
2019-02-25T14:08:46.887Z,14.50
2019-02-25T14:11:51.780Z,14.50
2019-02-25T14:14:56.613Z,14.60
2019-02-25T14:18:01.702Z,14.60
2019-02-25T14:21:06.642Z,14.70
2019-02-25T14:24:11.579Z,14.70
2019-02-25T14:27:16.499Z,14.60
2019-02-25T14:30:23.374Z,14.70
2019-02-25T14:33:28.317Z,14.60
2019-02-25T14:36:33.501Z,14.60
2019-02-25T14:39:40.652Z,14.50
2019-02-25T14:42:48.667Z,14.50
2019-02-25T14:45:55.731Z,14.40
2019-02-25T14:48:58.644Z,14.40
2019-02-25T14:52:03.487Z,14.30
2019-02-25T14:55:09.388Z,14.30
2019-02-25T14:58:17.230Z,14.30
2019-02-25T15:01:23.281Z,14.30
2019-02-25T15:04:30.453Z,14.20
2019-02-25T15:07:35.369Z,14.20
2019-02-25T15:10:41.235Z,14.10
2019-02-25T15:13:46.861Z,14.10
2019-02-25T15:16:51.975Z,14.00
2019-02-25T15:19:56.886Z,13.90
2019-02-25T15:23:01.802Z,13.90
2019-02-25T15:26:06.708Z,13.80
2019-02-25T15:29:12.239Z,13.80
2019-02-25T15:32:17.131Z,13.80
2019-02-25T15:35:22.193Z,13.70
2019-02-25T15:38:28.839Z,13.60
2019-02-25T15:41:33.624Z,13.60
2019-02-25T15:44:40.359Z,13.50
2019-02-25T15:47:46.900Z,13.40
2019-02-25T15:50:57.708Z,13.40
2019-02-25T15:54:01.956Z,13.30
2019-02-25T15:57:06.783Z,13.30
2019-02-25T16:00:19.108Z,13.20
2019-02-25T16:03:23.990Z,13.10
2019-02-25T16:09:40.618Z,12.90
2019-02-25T16:12:45.739Z,12.80
2019-02-25T16:15:50.977Z,12.80
2019-02-25T16:18:55.937Z,12.70
2019-02-25T16:22:02.616Z,12.70
2019-02-25T16:25:18.646Z,12.60
2019-02-25T16:28:23.588Z,12.60
2019-02-25T16:31:29.176Z,12.50
2019-02-25T16:34:36.132Z,12.40
2019-02-25T16:37:42.744Z,12.30
2019-02-25T16:40:50.233Z,12.20
2019-02-25T16:43:55.837Z,12.00
2019-02-25T16:47:01.745Z,11.90
2019-02-25T16:50:14.104Z,11.90
2019-02-25T16:53:20.214Z,11.70
2019-02-25T16:56:25.341Z,11.70
2019-02-25T16:59:30.230Z,11.70
2019-02-25T17:02:36.209Z,11.60
2019-02-25T17:05:42.822Z,11.50
2019-02-25T17:08:48.875Z,11.40
2019-02-25T17:11:54.921Z,11.30
2019-02-25T17:14:59.741Z,11.30
2019-02-25T17:18:04.754Z,11.30
2019-02-25T17:21:09.645Z,11.30
2019-02-25T17:24:14.515Z,11.30
2019-02-25T17:27:19.693Z,11.30
2019-02-25T17:30:27.050Z,11.20
2019-02-25T17:33:32.627Z,11.20
2019-02-25T17:36:38.166Z,11.20
2019-02-25T17:39:43.074Z,11.20
2019-02-25T17:42:49.433Z,11.10
2019-02-25T17:45:56.374Z,11.10
2019-02-25T17:49:01.809Z,11.10
2019-02-25T17:52:06.795Z,11.10
2019-02-25T17:55:14.066Z,11.10
2019-02-25T17:58:19.793Z,11.00
2019-02-25T18:01:27.989Z,11.00
2019-02-25T18:04:34.674Z,11.00
2019-02-25T18:07:40.013Z,10.90
2019-02-25T18:10:47.500Z,10.90
2019-02-25T18:13:53.513Z,10.90
2019-02-25T18:16:59.343Z,10.90
2019-02-25T18:20:08.606Z,11.00
2019-02-25T18:23:14.033Z,11.00
2019-02-25T18:26:18.923Z,11.00
2019-02-25T18:29:24.842Z,10.90
2019-02-25T18:32:32.800Z,10.90
2019-02-25T18:35:39.453Z,10.90
2019-02-25T18:38:46.218Z,10.90
2019-02-25T18:41:52.766Z,10.80
2019-02-25T18:44:57.373Z,10.80
2019-02-25T18:48:03.321Z,10.70
2019-02-25T18:51:08.229Z,10.60
2019-02-25T18:54:14.575Z,10.60
2019-02-25T18:57:21.034Z,10.50
2019-02-25T19:00:31.025Z,10.50
2019-02-25T19:03:35.934Z,10.40
2019-02-25T19:06:41.877Z,10.40
2019-02-25T19:09:49.370Z,10.40
2019-02-25T19:12:56.373Z,10.30
2019-02-25T19:16:01.656Z,10.30
2019-02-25T19:19:07.959Z,10.20
2019-02-25T19:22:13.640Z,10.20
2019-02-25T19:25:20.879Z,10.20
2019-02-25T19:28:27.769Z,10.20
2019-02-25T19:31:32.757Z,10.20
2019-02-25T19:34:39.750Z,10.20
2019-02-25T19:37:46.653Z,10.10
2019-02-25T19:40:53.123Z,10.00
2019-02-25T19:43:59.385Z,10.00
2019-02-25T19:47:04.484Z,10.00
2019-02-25T19:50:11.910Z,10.00
2019-02-25T19:53:19.419Z,10.20
2019-02-25T19:56:23.397Z,9.90
2019-02-25T19:59:30.476Z,9.90
2019-02-25T20:02:36.528Z,9.90
2019-02-25T20:05:44.201Z,9.90
2019-02-25T20:08:50.902Z,9.90
2019-02-25T20:11:57.278Z,9.90
2019-02-25T20:15:02.046Z,9.90
2019-02-25T20:18:09.342Z,9.80
2019-02-25T20:21:14.249Z,9.80
2019-02-25T20:24:21.169Z,9.70
2019-02-25T20:27:25.746Z,9.60
2019-02-25T20:30:30.923Z,9.60
2019-02-25T20:33:37.517Z,9.60
2019-02-25T20:36:42.818Z,9.50
2019-02-25T20:39:47.733Z,9.50
2019-02-25T20:42:53.578Z,9.40
2019-02-25T20:46:01.509Z,9.40
2019-02-25T20:49:05.953Z,9.30
2019-02-25T20:52:11.769Z,9.50
2019-02-25T20:55:17.489Z,9.30
2019-02-25T20:58:23.244Z,9.20
2019-02-25T21:01:28.147Z,9.20
2019-02-25T21:04:40.917Z,9.10
2019-02-25T21:07:45.903Z,9.10
2019-02-25T21:10:50.877Z,9.10
2019-02-25T21:13:55.821Z,9.10
2019-02-25T21:17:03.012Z,9.00
2019-02-25T21:20:10.625Z,9.00
2019-02-25T21:23:15.489Z,9.00
2019-02-25T21:26:20.321Z,8.80
2019-02-25T21:29:27.108Z,8.90
2019-02-25T21:32:32.895Z,9.10
2019-02-25T21:35:39.611Z,8.90
2019-02-25T21:38:45.380Z,8.90
2019-02-25T21:41:51.084Z,8.80
2019-02-25T21:44:57.028Z,8.80
2019-02-25T21:48:04.963Z,8.80
2019-02-25T21:51:11.886Z,8.80
2019-02-25T21:54:16.698Z,8.80
2019-02-25T21:57:21.585Z,8.80
2019-02-25T22:00:27.522Z,8.80
2019-02-25T22:03:37.057Z,8.90
2019-02-25T22:06:39.814Z,8.80
2019-02-25T22:09:45.919Z,8.70
2019-02-25T22:12:51.032Z,8.70
2019-02-25T22:15:57.408Z,8.80
2019-02-25T22:19:02.533Z,8.80
2019-02-25T22:22:07.405Z,8.70
2019-02-25T22:25:23.006Z,8.60
2019-02-25T22:28:28.814Z,8.70
2019-02-25T22:31:35.431Z,8.80
2019-02-25T22:34:40.994Z,8.70
2019-02-25T22:37:49.277Z,8.70
2019-02-25T22:40:53.601Z,8.70
2019-02-25T22:43:59.871Z,8.70
2019-02-25T22:47:09.233Z,8.70
2019-02-25T22:50:15.129Z,8.60
2019-02-25T22:53:19.810Z,8.60
2019-02-25T22:56:27.928Z,8.40
2019-02-25T22:59:35.028Z,8.50
2019-02-25T23:02:40.991Z,8.70
2019-02-25T23:05:46.006Z,8.40
2019-02-25T23:08:51.577Z,8.70
2019-02-25T23:11:57.532Z,8.40
2019-02-25T23:15:03.856Z,8.30
2019-02-25T23:18:11.992Z,8.30
2019-02-25T23:21:23.411Z,8.30
2019-02-25T23:24:26.009Z,8.50
2019-02-25T23:27:32.144Z,8.20
2019-02-25T23:30:39.119Z,8.20
2019-02-25T23:33:44.375Z,8.30
2019-02-25T23:36:51.638Z,8.20
2019-02-25T23:40:00.099Z,8.30
2019-02-25T23:43:05.291Z,8.10
2019-02-25T23:46:09.863Z,8.10
2019-02-25T23:49:14.770Z,8.10
2019-02-25T23:52:19.601Z,8.10
2019-02-25T23:55:27.043Z,8.00
2019-02-25T23:58:31.070Z,7.80
